Time;durP1;ratioP1;P1;durP2;ratioP2;P2;SDS_P1;SDS_P2;PMS_P1;PMS_P2;Temp;Humidity;BMP_temperature;BMP_pressure;BME280_temperature;BME280_humidity;BME280_pressure;Samples;Min_cycle;Max_cycle;Signal;HPM_P1;HPM_P2
2021/01/07 00:01:39;;;;;;;0.40;0.40;;;21.10;49.80;;;;;;6999515;28;20224;-60
2021/01/07 00:05:21;;;;;;;0.80;0.30;;;21.10;49.70;;;;;;6983538;28;20295;-58
2021/01/07 00:09:03;;;;;;;0.43;0.37;;;21.10;49.70;;;;;;6997998;28;20774;-54
2021/01/07 00:12:44;;;;;;;0.30;0.30;;;21.10;49.70;;;;;;6998507;28;20231;-56
2021/01/07 00:16:27;;;;;;;0.53;0.53;;;21.10;49.80;;;;;;6996845;28;20671;-59
2021/01/07 00:20:11;;;;;;;0.40;0.30;;;21.10;49.80;;;;;;6993840;28;20232;-59
2021/01/07 00:23:52;;;;;;;0.37;0.37;;;21.10;50.40;;;;;;6998267;28;20205;-60
2021/01/07 00:27:35;;;;;;;0.40;0.40;;;21.10;49.80;;;;;;6997423;28;20301;-56
2021/01/07 00:31:16;;;;;;;0.97;0.50;;;21.00;49.80;;;;;;6997415;28;20606;-57
2021/01/07 00:34:59;;;;;;;0.50;0.50;;;21.10;49.80;;;;;;6997125;28;20626;-59
2021/01/07 00:38:40;;;;;;;0.40;0.40;;;21.10;49.90;;;;;;6993984;28;20220;-56
2021/01/07 00:42:22;;;;;;;0.83;0.50;;;21.00;49.80;;;;;;6997608;28;20195;-57
2021/01/07 00:46:03;;;;;;;0.30;0.30;;;21.00;49.80;;;;;;6997073;28;20213;-55
2021/01/07 00:49:45;;;;;;;0.30;0.30;;;21.00;49.90;;;;;;6986440;28;20267;-55
2021/01/07 00:53:28;;;;;;;0.30;0.30;;;21.00;49.80;;;;;;6982896;28;20617;-56
2021/01/07 00:57:09;;;;;;;0.40;0.40;;;21.00;49.90;;;;;;6996813;28;20443;-54
2021/01/07 01:00:51;;;;;;;0.67;0.50;;;21.00;49.90;;;;;;6989830;28;20268;-55
2021/01/07 01:04:32;;;;;;;0.40;0.23;;;21.00;49.90;;;;;;6996433;28;20293;-59
2021/01/07 01:08:15;;;;;;;0.20;0.20;;;21.00;49.80;;;;;;6996349;28;20289;-56
2021/01/07 01:11:58;;;;;;;0.27;0.27;;;20.90;49.80;;;;;;6998771;28;20207;-60
2021/01/07 01:15:39;;;;;;;0.47;0.40;;;21.00;49.90;;;;;;6996098;28;20334;-55
2021/01/07 01:19:21;;;;;;;0.40;0.30;;;21.00;49.90;;;;;;6982928;28;20597;-55
2021/01/07 01:23:04;;;;;;;0.37;0.37;;;21.00;49.90;;;;;;6996485;28;20304;-59
2021/01/07 01:26:46;;;;;;;0.30;0.30;;;21.00;49.90;;;;;;6996622;28;20295;-60
2021/01/07 01:30:28;;;;;;;0.87;0.30;;;21.00;49.90;;;;;;6992042;28;20189;-59
2021/01/07 01:34:10;;;;;;;0.50;0.40;;;21.00;49.90;;;;;;6987401;28;20278;-59
2021/01/07 01:37:52;;;;;;;0.30;0.30;;;21.00;49.90;;;;;;6992401;28;20244;-58
2021/01/07 01:41:39;;;;;;;0.40;0.40;;;21.00;49.90;;;;;;6996113;28;20721;-59
2021/01/07 01:45:21;;;;;;;0.40;0.40;;;21.00;50.50;;;;;;6980803;28;20205;-59
2021/01/07 01:49:05;;;;;;;0.30;0.30;;;21.00;50.00;;;;;;6995515;28;20627;-58
2021/01/07 01:52:46;;;;;;;0.23;0.23;;;21.00;49.90;;;;;;6983660;28;20659;-59
2021/01/07 01:56:28;;;;;;;0.20;0.20;;;20.90;50.00;;;;;;6994661;28;20287;-59
2021/01/07 02:00:11;;;;;;;0.37;0.37;;;20.90;50.00;;;;;;6994096;28;20240;-57
2021/01/07 02:03:53;;;;;;;0.33;0.33;;;20.90;49.90;;;;;;6996163;28;20239;-61
2021/01/07 02:07:40;;;;;;;0.53;0.50;;;20.90;49.90;;;;;;6994885;28;20296;-59
2021/01/07 02:11:22;;;;;;;0.20;0.20;;;21.00;49.90;;;;;;6981255;28;20188;-60
2021/01/07 02:15:04;;;;;;;0.53;0.30;;;20.90;49.90;;;;;;6995101;28;20267;-60
2021/01/07 02:18:46;;;;;;;0.30;0.30;;;20.90;50.00;;;;;;6994497;28;20215;-61
2021/01/07 02:22:29;;;;;;;0.30;0.30;;;20.90;50.00;;;;;;6996402;28;20275;-60
2021/01/07 02:26:10;;;;;;;0.40;0.40;;;20.90;50.00;;;;;;6994498;28;20231;-61
2021/01/07 02:29:52;;;;;;;0.30;0.30;;;21.00;50.10;;;;;;6994208;28;20283;-60
2021/01/07 02:33:33;;;;;;;0.20;0.20;;;20.90;50.00;;;;;;6994436;28;20279;-57
2021/01/07 02:37:15;;;;;;;0.30;0.30;;;20.90;49.90;;;;;;6983928;28;20251;-58
2021/01/07 02:40:57;;;;;;;0.23;0.20;;;20.90;50.00;;;;;;6996330;28;20234;-59
2021/01/07 02:44:40;;;;;;;0.40;0.33;;;20.90;50.00;;;;;;6990729;28;20248;-60
2021/01/07 02:48:21;;;;;;;0.23;0.20;;;20.90;50.00;;;;;;6988011;28;20251;-60
2021/01/07 02:52:03;;;;;;;0.23;0.20;;;20.90;50.00;;;;;;6994036;28;20721;-59
2021/01/07 02:55:45;;;;;;;0.30;0.30;;;20.90;50.00;;;;;;6994790;28;20191;-60
2021/01/07 02:59:27;;;;;;;0.47;0.47;;;20.90;50.00;;;;;;6980511;28;20276;-60
2021/01/07 03:03:09;;;;;;;0.27;0.27;;;20.90;50.10;;;;;;6993862;28;20679;-59
2021/01/07 03:06:50;;;;;;;0.43;0.40;;;20.90;50.00;;;;;;6993858;28;20310;-59
2021/01/07 03:10:32;;;;;;;0.50;0.30;;;20.90;50.00;;;;;;6993981;28;20710;-59
2021/01/07 03:14:13;;;;;;;0.30;0.30;;;20.80;50.00;;;;;;6993695;28;20232;-59
2021/01/07 03:17:56;;;;;;;0.50;0.30;;;20.90;50.20;;;;;;6984487;28;20331;-59
2021/01/07 03:21:41;;;;;;;0.67;0.50;;;20.90;50.10;;;;;;6994704;28;20275;-59
2021/01/07 03:25:23;;;;;;;0.20;0.20;;;20.90;50.10;;;;;;6979039;28;20212;-59
2021/01/07 03:29:04;;;;;;;0.30;0.30;;;20.90;50.10;;;;;;6993556;28;20304;-56
2021/01/07 03:32:46;;;;;;;0.30;0.30;;;20.90;50.10;;;;;;6993651;28;20246;-58
2021/01/07 03:36:28;;;;;;;0.40;0.40;;;20.90;50.10;;;;;;6993444;28;20243;-56
2021/01/07 03:40:11;;;;;;;0.40;0.30;;;20.90;50.10;;;;;;6992485;28;20653;-55
2021/01/07 03:43:53;;;;;;;0.33;0.33;;;20.80;50.10;;;;;;6994635;28;20279;-55
2021/01/07 03:47:35;;;;;;;0.30;0.30;;;20.90;50.10;;;;;;6993260;28;20696;-59
2021/01/07 03:51:16;;;;;;;0.40;0.40;;;20.80;50.10;;;;;;6978616;28;20196;-59
2021/01/07 03:54:59;;;;;;;0.30;0.30;;;20.90;50.10;;;;;;6981460;28;20276;-59
2021/01/07 03:58:40;;;;;;;0.30;0.30;;;20.80;50.70;;;;;;6992043;28;20299;-60
2021/01/07 04:02:22;;;;;;;0.40;0.40;;;20.80;50.10;;;;;;6993815;28;20196;-59
2021/01/07 04:06:04;;;;;;;0.37;0.30;;;20.80;50.10;;;;;;6993389;28;20831;-56
2021/01/07 04:09:45;;;;;;;0.37;0.37;;;20.80;50.10;;;;;;6992890;28;20272;-56
2021/01/07 04:13:28;;;;;;;0.27;0.27;;;20.80;50.10;;;;;;6982480;28;20281;-59
2021/01/07 04:17:09;;;;;;;0.30;0.30;;;20.80;50.10;;;;;;6998086;28;20303;-60
2021/01/07 04:20:51;;;;;;;0.40;0.40;;;20.80;50.20;;;;;;6998573;28;20275;-61
2021/01/07 04:24:32;;;;;;;0.30;0.30;;;20.80;50.10;;;;;;6997733;28;20240;-60
2021/01/07 04:28:14;;;;;;;0.40;0.40;;;20.80;50.20;;;;;;6990296;28;20219;-59
2021/01/07 04:31:56;;;;;;;0.30;0.30;;;20.80;50.20;;;;;;6998139;28;20663;-59
2021/01/07 04:35:38;;;;;;;0.30;0.30;;;20.80;50.30;;;;;;6998239;28;20219;-57
2021/01/07 04:39:20;;;;;;;1.00;0.30;;;20.80;50.20;;;;;;6985389;28;20200;-60
2021/01/07 04:43:01;;;;;;;0.40;0.40;;;20.80;50.20;;;;;;6997289;28;20284;-59
2021/01/07 04:46:43;;;;;;;0.33;0.33;;;20.80;50.20;;;;;;6997381;28;20221;-58
2021/01/07 04:50:26;;;;;;;0.33;0.33;;;20.80;50.10;;;;;;6994384;28;20567;-59
2021/01/07 04:54:08;;;;;;;0.40;0.40;;;20.90;50.10;;;;;;6989187;28;20280;-57
2021/01/07 04:57:50;;;;;;;0.30;0.30;;;20.90;50.10;;;;;;6997141;28;20299;-55
2021/01/07 05:01:32;;;;;;;0.40;0.30;;;20.90;50.10;;;;;;6996383;28;20224;-57
2021/01/07 05:05:13;;;;;;;0.47;0.40;;;20.90;50.10;;;;;;6981241;28;20238;-56
2021/01/07 05:09:00;;;;;;;0.47;0.30;;;20.90;50.10;;;;;;6996442;28;20698;-54
2021/01/07 05:12:42;;;;;;;0.23;0.23;;;21.00;50.10;;;;;;6996996;28;20583;-56
2021/01/07 05:16:23;;;;;;;0.30;0.30;;;20.90;50.10;;;;;;6996392;28;20254;-56
2021/01/07 05:20:09;;;;;;;0.30;0.30;;;20.90;50.10;;;;;;6996260;28;20196;-56
2021/01/07 05:23:52;;;;;;;0.20;0.20;;;20.90;50.00;;;;;;6997049;28;20276;-57
2021/01/07 05:27:35;;;;;;;0.20;0.20;;;20.90;50.10;;;;;;6995835;28;20255;-59
2021/01/07 05:31:18;;;;;;;0.20;0.20;;;21.00;50.70;;;;;;6996471;28;20386;-59
2021/01/07 05:35:00;;;;;;;0.20;0.20;;;20.90;50.10;;;;;;6997469;28;20192;-60
2021/01/07 05:38:41;;;;;;;0.20;0.20;;;20.90;50.00;;;;;;6994327;28;20326;-59
2021/01/07 05:42:23;;;;;;;0.30;0.30;;;20.90;50.00;;;;;;6995799;28;20271;-57
2021/01/07 05:46:07;;;;;;;0.20;0.20;;;20.90;50.00;;;;;;6995963;28;20296;-59
2021/01/07 05:49:49;;;;;;;0.20;0.20;;;20.90;50.10;;;;;;6996068;28;20201;-60
2021/01/07 05:53:31;;;;;;;0.20;0.20;;;20.90;50.10;;;;;;6981736;28;20204;-59
2021/01/07 05:57:14;;;;;;;0.20;0.20;;;20.90;50.10;;;;;;6979712;28;20272;-59
2021/01/07 06:00:57;;;;;;;0.33;0.20;;;20.90;50.10;;;;;;6995499;28;20204;-59
2021/01/07 06:04:42;;;;;;;0.20;0.17;;;20.90;50.10;;;;;;6984497;28;20227;-59
2021/01/07 06:08:25;;;;;;;0.20;0.20;;;20.90;50.00;;;;;;6994903;28;20690;-58
2021/01/07 06:12:08;;;;;;;0.30;0.30;;;20.90;50.10;;;;;;6985094;28;20286;-57
2021/01/07 06:15:49;;;;;;;0.20;0.20;;;20.90;50.00;;;;;;6983959;28;20666;-59
2021/01/07 06:19:37;;;;;;;0.30;0.30;;;20.90;50.00;;;;;;6968419;28;20292;-55
2021/01/07 06:23:19;;;;;;;0.30;0.30;;;20.90;50.00;;;;;;6995214;28;20246;-60
2021/01/07 06:27:23;;;;;;;0.30;0.30;;;20.90;50.00;;;;;;6995261;28;20307;-56
2021/01/07 06:31:14;;;;;;;0.20;0.20;;;20.90;50.00;;;;;;6995552;28;20322;-58
2021/01/07 06:34:57;;;;;;;0.50;0.40;;;20.90;50.10;;;;;;6988507;28;20185;-60
2021/01/07 06:38:50;;;;;;;0.40;0.40;;;21.00;50.10;;;;;;6985815;28;20338;-54
2021/01/07 06:42:35;;;;;;;0.30;0.30;;;20.90;50.00;;;;;;6989872;28;20192;-59
2021/01/07 06:46:39;;;;;;;0.30;0.30;;;21.00;50.00;;;;;;6994292;28;20699;-55
2021/01/07 06:50:21;;;;;;;0.30;0.30;;;20.90;50.00;;;;;;6994565;28;20200;-55
2021/01/07 06:54:04;;;;;;;0.30;0.30;;;20.90;50.00;;;;;;6995203;28;20283;-56
2021/01/07 06:57:47;;;;;;;0.40;0.40;;;21.00;50.00;;;;;;6994374;28;20208;-56
2021/01/07 07:01:29;;;;;;;0.40;0.40;;;21.00;50.00;;;;;;6980986;28;20638;-56
2021/01/07 07:05:14;;;;;;;0.30;0.30;;;20.90;49.90;;;;;;6978773;28;20295;-58
2021/01/07 07:08:56;;;;;;;11.57;0.87;;;20.90;50.10;;;;;;6993361;28;20244;-57
2021/01/07 07:12:41;;;;;;;0.87;0.50;;;20.90;50.00;;;;;;6993936;28;20222;-58
2021/01/07 07:16:24;;;;;;;0.50;0.50;;;20.90;49.30;;;;;;6993622;28;20236;-58
2021/01/07 07:20:08;;;;;;;0.93;0.30;;;20.90;49.80;;;;;;6987095;28;20746;-56
2021/01/07 07:23:49;;;;;;;0.60;0.50;;;21.00;49.90;;;;;;6990047;28;20254;-59
2021/01/07 07:27:45;;;;;;;1.07;0.47;;;20.90;49.90;;;;;;6989916;28;20220;-59
2021/01/07 07:31:41;;;;;;;3.50;0.50;;;20.90;49.60;;;;;;6987477;28;20274;-59
2021/01/07 07:35:24;;;;;;;0.80;0.40;;;21.00;49.80;;;;;;6978835;28;20188;-59
2021/01/07 07:39:07;;;;;;;0.57;0.40;;;21.00;49.80;;;;;;6988493;28;20310;-58
2021/01/07 07:42:50;;;;;;;0.50;0.43;;;21.00;49.80;;;;;;6983320;28;20228;-58
2021/01/07 07:46:32;;;;;;;0.63;0.50;;;21.00;49.80;;;;;;6990981;28;20250;-58
2021/01/07 07:50:21;;;;;;;0.30;0.20;;;20.90;49.80;;;;;;6995216;28;20276;-58
2021/01/07 07:54:04;;;;;;;0.60;0.50;;;21.00;49.80;;;;;;6992269;28;20216;-59
2021/01/07 07:57:46;;;;;;;0.30;0.30;;;21.00;49.80;;;;;;6990868;28;20271;-58
2021/01/07 08:01:40;;;;;;;1.57;0.40;;;21.00;49.90;;;;;;6984569;28;20242;-58
2021/01/07 08:05:32;;;;;;;2.53;0.47;;;21.00;49.90;;;;;;6980657;28;20207;-59
2021/01/07 08:09:15;;;;;;;0.73;0.40;;;21.00;49.80;;;;;;6994928;28;20222;-58
2021/01/07 08:12:57;;;;;;;0.20;0.20;;;21.00;49.80;;;;;;6997349;28;20193;-59
2021/01/07 08:16:39;;;;;;;0.40;0.40;;;21.00;49.80;;;;;;6998284;28;20757;-59
2021/01/07 08:20:25;;;;;;;0.43;0.43;;;21.00;49.80;;;;;;6998283;28;20242;-58
2021/01/07 08:24:10;;;;;;;0.40;0.33;;;21.00;49.80;;;;;;6998285;28;20294;-59
2021/01/07 08:27:56;;;;;;;0.30;0.30;;;21.00;49.80;;;;;;6994911;28;20218;-58
2021/01/07 08:31:44;;;;;;;0.60;0.30;;;21.00;49.90;;;;;;6998003;28;20330;-58
2021/01/07 08:35:26;;;;;;;0.40;0.40;;;21.00;49.90;;;;;;6983528;28;20298;-58
2021/01/07 08:39:14;;;;;;;0.40;0.40;;;21.00;49.80;;;;;;6979408;28;20271;-58
2021/01/07 08:42:55;;;;;;;0.70;0.30;;;21.00;49.80;;;;;;6994256;28;20224;-60
2021/01/07 08:46:39;;;;;;;0.60;0.40;;;21.20;49.60;;;;;;6995917;28;20259;-62
2021/01/07 08:50:21;;;;;;;0.40;0.40;;;21.30;49.30;;;;;;6983532;28;20720;-64
2021/01/07 08:54:10;;;;;;;0.50;0.43;;;21.40;49.20;;;;;;6996226;28;20756;-62
2021/01/07 08:58:01;;;;;;;1.87;0.50;;;21.40;49.10;;;;;;6995186;28;20653;-63
2021/01/07 09:01:43;;;;;;;0.37;0.37;;;21.50;49.00;;;;;;6997027;28;20205;-58
2021/01/07 09:05:26;;;;;;;1.03;0.50;;;21.50;49.00;;;;;;6993262;28;20697;-59
2021/01/07 09:09:12;;;;;;;0.63;0.33;;;21.50;48.90;;;;;;6995803;28;20216;-55
2021/01/07 09:12:53;;;;;;;0.47;0.43;;;21.50;48.80;;;;;;6996234;28;20231;-58
2021/01/07 09:16:35;;;;;;;0.57;0.30;;;21.50;48.80;;;;;;6995870;28;20284;-60
2021/01/07 09:20:19;;;;;;;0.60;0.50;;;21.50;48.70;;;;;;6996385;28;20275;-57
2021/01/07 09:24:01;;;;;;;0.33;0.33;;;21.60;48.60;;;;;;6995463;28;20334;-59
2021/01/07 09:27:43;;;;;;;0.50;0.40;;;21.60;48.60;;;;;;6986757;28;20259;-59
2021/01/07 09:31:24;;;;;;;0.40;0.40;;;21.60;48.50;;;;;;6996175;28;20228;-58
2021/01/07 09:35:07;;;;;;;2.23;0.40;;;21.70;48.40;;;;;;6996058;28;20284;-57
2021/01/07 09:38:48;;;;;;;0.47;0.43;;;21.70;48.40;;;;;;6996189;28;20219;-57
2021/01/07 09:42:32;;;;;;;0.30;0.30;;;21.70;48.40;;;;;;6991119;28;20238;-55
2021/01/07 09:46:14;;;;;;;0.30;0.30;;;21.70;48.30;;;;;;6995545;28;20602;-55
2021/01/07 09:49:56;;;;;;;0.60;0.40;;;21.80;48.10;;;;;;6994882;28;20284;-53
2021/01/07 09:53:38;;;;;;;0.80;0.40;;;21.80;48.00;;;;;;6983163;28;20201;-53
2021/01/07 09:57:20;;;;;;;0.60;0.40;;;21.80;48.00;;;;;;6992844;28;20300;-54
2021/01/07 10:01:02;;;;;;;0.57;0.50;;;21.80;47.90;;;;;;6995960;28;20201;-54
2021/01/07 10:04:44;;;;;;;0.20;0.20;;;21.80;48.00;;;;;;6994423;28;20236;-53
2021/01/07 10:08:26;;;;;;;0.50;0.40;;;21.80;47.90;;;;;;6993983;28;20240;-55
2021/01/07 10:12:09;;;;;;;2.50;0.67;;;21.80;48.00;;;;;;6986582;28;20291;-57
2021/01/07 10:15:50;;;;;;;0.53;0.40;;;21.60;48.20;;;;;;6989598;28;20227;-59
2021/01/07 10:19:35;;;;;;;1.67;0.37;;;21.50;48.20;;;;;;6981908;28;20220;-56
2021/01/07 10:23:18;;;;;;;0.40;0.30;;;21.50;48.20;;;;;;6977613;28;20291;-56
2021/01/07 10:27:01;;;;;;;2.20;0.30;;;21.50;48.20;;;;;;6993969;28;20238;-56
2021/01/07 10:30:43;;;;;;;0.50;0.50;;;21.50;48.40;;;;;;6994566;28;20322;-56
2021/01/07 10:34:25;;;;;;;0.53;0.40;;;21.50;48.50;;;;;;6994118;28;20275;-57
2021/01/07 10:38:09;;;;;;;0.40;0.40;;;21.50;48.60;;;;;;6986331;28;20295;-55
2021/01/07 10:41:55;;;;;;;0.57;0.40;;;21.40;49.30;;;;;;6993202;28;20271;-58
2021/01/07 10:45:37;;;;;;;0.43;0.43;;;21.50;49.00;;;;;;6981217;28;20306;-55
2021/01/07 10:49:19;;;;;;;0.60;0.50;;;21.50;49.10;;;;;;6980189;28;20275;-57
2021/01/07 10:53:19;;;;;;;0.90;0.47;;;21.50;49.00;;;;;;6994600;28;20285;-57
2021/01/07 10:57:30;;;;;;;0.60;0.60;;;21.50;48.90;;;;;;6993904;28;20295;-58
2021/01/07 11:01:23;;;;;;;0.77;0.50;;;21.50;49.00;;;;;;7000057;28;20242;-53
2021/01/07 11:05:14;;;;;;;4.27;1.40;;;21.50;49.00;;;;;;6994790;28;20212;-55
2021/01/07 11:09:02;;;;;;;2.90;2.27;;;21.50;49.10;;;;;;6986678;28;20213;-56
2021/01/07 11:12:54;;;;;;;3.90;2.50;;;21.50;49.20;;;;;;6993911;28;20224;-54
2021/01/07 11:16:41;;;;;;;2.87;1.70;;;21.50;49.30;;;;;;6992709;28;20676;-52
2021/01/07 11:20:27;;;;;;;3.30;1.90;;;21.50;49.20;;;;;;6995221;28;20691;-52
2021/01/07 11:24:10;;;;;;;2.77;1.90;;;21.50;49.20;;;;;;6998706;28;20195;-58
2021/01/07 11:27:53;;;;;;;4.00;2.20;;;21.50;50.30;;;;;;6971447;28;20303;-54
2021/01/07 11:31:37;;;;;;;3.60;2.83;;;21.50;49.30;;;;;;6986030;28;20200;-55
2021/01/07 11:35:19;;;;;;;4.37;2.60;;;21.50;48.80;;;;;;6999618;28;20274;-55
2021/01/07 11:39:01;;;;;;;4.57;2.73;;;21.50;49.10;;;;;;6999885;28;20251;-58
2021/01/07 11:42:53;;;;;;;11.93;2.70;;;21.50;49.10;;;;;;6998021;28;20276;-56
2021/01/07 11:46:40;;;;;;;8.50;2.83;;;21.50;49.20;;;;;;6997644;28;20291;-54
2021/01/07 11:50:23;;;;;;;5.93;2.57;;;21.50;49.20;;;;;;6999991;28;20275;-53
2021/01/07 11:54:07;;;;;;;5.67;2.40;;;21.50;49.20;;;;;;6998904;28;20246;-54
2021/01/07 11:57:51;;;;;;;6.10;2.60;;;21.50;49.30;;;;;;6997901;28;20238;-54
2021/01/07 12:01:37;;;;;;;3.10;2.30;;;21.50;49.20;;;;;;6985973;28;20275;-54
2021/01/07 12:05:21;;;;;;;4.03;2.00;;;21.50;49.20;;;;;;6983473;28;20474;-55
2021/01/07 12:09:08;;;;;;;5.30;1.97;;;21.20;49.20;;;;;;6984606;28;20216;-57
2021/01/07 12:13:12;;;;;;;3.60;2.13;;;21.20;49.20;;;;;;6998106;28;20196;-56
2021/01/07 12:16:55;;;;;;;4.90;1.80;;;21.30;49.80;;;;;;6998595;28;20302;-60
2021/01/07 12:20:37;;;;;;;3.00;2.10;;;21.30;49.80;;;;;;6994453;28;20541;-59
2021/01/07 12:24:19;;;;;;;4.87;1.87;;;21.30;50.20;;;;;;6997350;28;20287;-58
2021/01/07 12:28:02;;;;;;;4.67;1.53;;;21.20;50.00;;;;;;6998539;28;20248;-57
2021/01/07 12:31:45;;;;;;;4.03;1.93;;;21.20;50.10;;;;;;6993247;28;20623;-61
2021/01/07 12:35:34;;;;;;;2.63;1.80;;;21.10;50.20;;;;;;6989229;28;20638;-60
2021/01/07 12:39:27;;;;;;;5.80;1.93;;;21.10;50.30;;;;;;6985110;28;20274;-58
2021/01/07 12:43:12;;;;;;;2.70;1.57;;;21.10;50.30;;;;;;6993926;28;20279;-60
2021/01/07 12:46:56;;;;;;;3.27;1.70;;;21.10;50.30;;;;;;6997646;28;20223;-62
2021/01/07 12:50:37;;;;;;;3.00;1.40;;;20.90;50.40;;;;;;6997500;28;20718;-60
2021/01/07 12:54:20;;;;;;;1.90;1.30;;;20.90;50.60;;;;;;6997531;28;20204;-60
2021/01/07 12:58:11;;;;;;;4.50;1.70;;;20.90;50.70;;;;;;6996427;28;20299;-60
2021/01/07 13:02:08;;;;;;;2.37;1.50;;;20.90;50.70;;;;;;6997604;28;20203;-60
2021/01/07 13:05:53;;;;;;;2.70;1.30;;;20.90;50.60;;;;;;6981170;28;20300;-61
2021/01/07 13:09:37;;;;;;;7.13;1.57;;;20.90;50.60;;;;;;6983926;28;20650;-59
2021/01/07 13:13:21;;;;;;;3.27;1.83;;;20.90;50.70;;;;;;6997036;28;20236;-58
2021/01/07 13:17:04;;;;;;;7.15;1.40;;;20.90;51.00;;;;;;6995584;28;20363;-53
2021/01/07 13:20:45;;;;;;;2.50;1.20;;;21.00;50.90;;;;;;6997507;28;20185;-58
2021/01/07 13:24:27;;;;;;;1.67;1.30;;;21.30;50.00;;;;;;6995865;28;20268;-58
2021/01/07 13:28:08;;;;;;;1.50;1.23;;;21.50;49.50;;;;;;6995810;28;20832;-57
2021/01/07 13:31:50;;;;;;;1.77;1.20;;;21.70;49.20;;;;;;6995354;28;20283;-57
2021/01/07 13:35:37;;;;;;;2.83;1.20;;;21.80;49.30;;;;;;6987867;28;20188;-58
2021/01/07 13:39:19;;;;;;;1.93;1.10;;;21.90;48.80;;;;;;6983475;28;20311;-52
2021/01/07 13:43:03;;;;;;;3.37;1.10;;;21.90;49.10;;;;;;6994113;28;20276;-51
2021/01/07 13:46:47;;;;;;;1.87;1.23;;;21.70;48.40;;;;;;6995833;28;20295;-53
2021/01/07 13:50:34;;;;;;;1.83;1.03;;;21.70;48.30;;;;;;6996870;28;20271;-52
2021/01/07 13:54:21;;;;;;;2.07;1.20;;;21.70;48.30;;;;;;6995530;28;20195;-49
2021/01/07 13:58:04;;;;;;;2.07;1.23;;;21.60;48.20;;;;;;6994688;28;20273;-52
2021/01/07 14:01:45;;;;;;;1.83;1.00;;;21.70;47.90;;;;;;6996195;28;20318;-48
2021/01/07 14:05:28;;;;;;;2.43;1.20;;;21.70;48.00;;;;;;6980842;28;20216;-53
2021/01/07 14:09:16;;;;;;;1.93;1.37;;;21.70;48.00;;;;;;6995205;28;20620;-55
2021/01/07 14:13:00;;;;;;;2.30;1.40;;;21.60;48.00;;;;;;6992944;28;20738;-54
2021/01/07 14:16:43;;;;;;;2.70;1.33;;;21.60;48.30;;;;;;6986661;28;20204;-50
2021/01/07 14:20:25;;;;;;;3.40;1.60;;;21.50;48.40;;;;;;6996008;28;20222;-52
2021/01/07 14:24:11;;;;;;;3.83;1.87;;;21.50;48.50;;;;;;6995199;28;20246;-51
2021/01/07 14:27:59;;;;;;;5.77;2.53;;;21.50;49.00;;;;;;6994605;28;20236;-51
2021/01/07 14:31:42;;;;;;;10.17;2.83;;;21.70;48.50;;;;;;6982670;28;20220;-49
2021/01/07 14:35:26;;;;;;;9.47;3.80;;;21.70;48.40;;;;;;6985299;28;20188;-51
2021/01/07 14:39:08;;;;;;;8.57;3.83;;;21.70;48.50;;;;;;6994784;28;20634;-50
2021/01/07 14:42:51;;;;;;;13.13;4.57;;;21.70;48.20;;;;;;6994380;28;20204;-50
2021/01/07 14:46:35;;;;;;;11.23;4.87;;;21.80;47.10;;;;;;6994532;28;20299;-52
2021/01/07 14:50:20;;;;;;;14.13;4.73;;;21.80;46.90;;;;;;6992098;28;20285;-57
2021/01/07 14:54:06;;;;;;;10.90;4.63;;;21.80;47.10;;;;;;6995150;28;20655;-52
2021/01/07 14:58:25;;;;;;;14.67;5.03;;;21.80;47.40;;;;;;6994404;28;20208;-51
2021/01/07 15:02:31;;;;;;;11.47;4.53;;;21.70;47.30;;;;;;6985393;28;20235;-55
2021/01/07 15:06:31;;;;;;;10.73;4.50;;;21.90;47.40;;;;;;6993335;28;20216;-51
2021/01/07 15:10:24;;;;;;;10.77;4.30;;;22.10;47.30;;;;;;6994050;28;20196;-52
2021/01/07 15:14:07;;;;;;;11.90;4.70;;;22.20;47.20;;;;;;6992487;28;20271;-52
2021/01/07 15:18:02;;;;;;;12.97;4.40;;;22.20;47.30;;;;;;6991120;28;20675;-51
2021/01/07 15:22:05;;;;;;;9.17;3.77;;;22.30;47.10;;;;;;6983541;28;20283;-51
2021/01/07 15:25:49;;;;;;;10.53;4.13;;;22.40;47.00;;;;;;6981446;28;20216;-50
2021/01/07 15:29:51;;;;;;;11.50;4.60;;;22.40;47.00;;;;;;6980251;28;20247;-54
2021/01/07 15:33:35;;;;;;;10.17;4.10;;;22.40;46.90;;;;;;6979321;28;20234;-50
2021/01/07 15:37:49;;;;;;;9.20;3.97;;;22.50;46.90;;;;;;6983797;28;20644;-56
2021/01/07 15:42:21;;;;;;;9.70;4.10;;;22.50;46.80;;;;;;6992350;28;20228;-56
2021/01/07 15:46:28;;;;;;;7.30;3.70;;;22.40;45.40;;;;;;6983752;28;20299;-55
2021/01/07 15:50:16;;;;;;;6.77;3.30;;;22.20;46.10;;;;;;6993618;28;20220;-55
2021/01/07 15:54:38;;;;;;;6.70;3.67;;;22.20;46.50;;;;;;6993554;28;20253;-56
2021/01/07 15:58:53;;;;;;;6.63;3.27;;;22.20;46.60;;;;;;6993071;28;20299;-53
2021/01/07 16:02:38;;;;;;;5.33;3.33;;;22.30;46.70;;;;;;6992614;28;20628;-54
2021/01/07 16:06:27;;;;;;;4.50;2.90;;;22.30;47.00;;;;;;6986738;28;20696;-56
2021/01/07 16:10:11;;;;;;;6.60;3.20;;;22.20;47.00;;;;;;6997503;28;20185;-55
2021/01/07 16:13:53;;;;;;;5.30;3.10;;;22.20;46.90;;;;;;7007097;28;20307;-54
2021/01/07 16:17:36;;;;;;;7.43;3.63;;;22.30;47.00;;;;;;6997335;28;20215;-54
2021/01/07 16:21:18;;;;;;;6.30;3.23;;;22.20;47.20;;;;;;6998203;28;20552;-55
2021/01/07 16:25:04;;;;;;;5.87;2.87;;;22.20;47.00;;;;;;6998228;28;20298;-55
2021/01/07 16:28:47;;;;;;;8.87;3.10;;;22.20;47.30;;;;;;6978484;28;20654;-54
2021/01/07 16:32:28;;;;;;;5.47;2.90;;;22.30;47.30;;;;;;6993023;28;20271;-57
2021/01/07 16:36:10;;;;;;;5.23;2.80;;;22.20;47.10;;;;;;6995291;28;20638;-54
2021/01/07 16:39:52;;;;;;;7.00;3.03;;;22.20;47.30;;;;;;6990622;28;20287;-54
2021/01/07 16:43:34;;;;;;;3.57;2.73;;;22.20;47.20;;;;;;6998230;28;20278;-53
2021/01/07 16:47:17;;;;;;;4.87;3.13;;;22.20;47.20;;;;;;6982002;28;20259;-56
2021/01/07 16:50:58;;;;;;;5.97;3.33;;;22.10;47.10;;;;;;6996898;28;20235;-53
2021/01/07 16:54:41;;;;;;;6.17;2.97;;;21.90;47.50;;;;;;6996923;28;20325;-55
2021/01/07 16:58:23;;;;;;;5.27;3.00;;;21.80;47.90;;;;;;6988551;28;20435;-52
2021/01/07 17:02:05;;;;;;;6.03;3.23;;;21.80;48.20;;;;;;6996673;28;20192;-54
2021/01/07 17:05:47;;;;;;;4.70;2.80;;;21.70;48.20;;;;;;6996162;28;20307;-57
2021/01/07 17:09:29;;;;;;;3.97;2.47;;;21.70;48.30;;;;;;6987694;28;20283;-57
2021/01/07 17:13:10;;;;;;;5.00;3.27;;;21.70;48.40;;;;;;6996299;28;20283;-53
2021/01/07 17:16:52;;;;;;;3.50;2.47;;;21.70;48.40;;;;;;6995801;28;20249;-56
2021/01/07 17:20:34;;;;;;;4.30;2.67;;;21.70;48.50;;;;;;6996252;28;20279;-55
2021/01/07 17:24:16;;;;;;;4.67;2.70;;;21.70;48.60;;;;;;6997488;28;20634;-54
2021/01/07 17:27:58;;;;;;;3.43;2.63;;;21.60;48.10;;;;;;6996355;28;20738;-58
2021/01/07 17:31:39;;;;;;;4.10;2.63;;;21.60;48.40;;;;;;6993197;28;20589;-59
2021/01/07 17:35:21;;;;;;;4.93;3.10;;;21.60;48.50;;;;;;6992804;28;20287;-56
2021/01/07 17:39:03;;;;;;;3.07;2.40;;;21.60;48.50;;;;;;6994780;28;20241;-55
2021/01/07 17:42:46;;;;;;;5.80;3.00;;;21.60;48.50;;;;;;6993130;28;20271;-57
2021/01/07 17:46:27;;;;;;;6.77;2.70;;;21.60;48.60;;;;;;6980164;28;20224;-54
2021/01/07 17:50:09;;;;;;;5.70;2.73;;;21.60;48.60;;;;;;6986665;28;20673;-53
2021/01/07 17:53:51;;;;;;;3.60;2.57;;;21.50;48.30;;;;;;6992332;28;20458;-54
2021/01/07 17:57:32;;;;;;;3.30;2.63;;;21.60;48.70;;;;;;7007662;28;20782;-58
2021/01/07 18:01:16;;;;;;;3.87;2.73;;;21.70;48.30;;;;;;6980949;28;20203;-57
2021/01/07 18:04:57;;;;;;;6.47;2.97;;;21.60;48.50;;;;;;6994763;28;20232;-58
2021/01/07 18:08:39;;;;;;;4.03;2.60;;;21.60;48.70;;;;;;6995128;28;20291;-52
2021/01/07 18:12:21;;;;;;;4.93;2.90;;;21.60;48.60;;;;;;6989289;28;20192;-56
2021/01/07 18:16:03;;;;;;;3.00;2.43;;;21.60;50.50;;;;;;6994971;28;20239;-51
2021/01/07 18:19:46;;;;;;;3.63;2.80;;;21.70;49.20;;;;;;6994784;28;20671;-57
2021/01/07 18:23:27;;;;;;;3.53;2.80;;;21.80;48.30;;;;;;6994678;28;20192;-53
2021/01/07 18:27:09;;;;;;;5.93;2.60;;;21.80;48.50;;;;;;6993955;28;20490;-52
2021/01/07 18:30:51;;;;;;;3.97;2.67;;;21.90;48.30;;;;;;6993562;28;20235;-52
2021/01/07 18:34:32;;;;;;;4.20;2.83;;;21.90;50.00;;;;;;6994363;28;20235;-53
2021/01/07 18:38:15;;;;;;;4.37;2.73;;;21.90;48.80;;;;;;6984581;28;20303;-51
2021/01/07 18:41:56;;;;;;;5.13;2.77;;;21.80;48.40;;;;;;6995407;28;20243;-52
2021/01/07 18:45:38;;;;;;;4.03;3.00;;;21.80;48.50;;;;;;6993723;28;20219;-54
2021/01/07 18:49:19;;;;;;;4.30;2.57;;;21.90;48.70;;;;;;6979552;28;20275;-54
2021/01/07 18:53:01;;;;;;;3.67;2.60;;;22.00;48.20;;;;;;6997954;28;20206;-55
2021/01/07 18:56:49;;;;;;;4.20;3.23;;;22.10;48.40;;;;;;6997990;28;20217;-50
2021/01/07 19:00:30;;;;;;;18.17;15.90;;;22.10;48.10;;;;;;6996231;28;20698;-56
2021/01/07 19:04:12;;;;;;;16.77;12.13;;;21.70;41.00;;;;;;6993800;28;20279;-58
2021/01/07 19:07:54;;;;;;;11.00;9.33;;;21.60;43.00;;;;;;6988392;28;20247;-59
2021/01/07 19:11:35;;;;;;;10.10;8.07;;;21.60;43.00;;;;;;6994892;28;20271;-53
2021/01/07 19:15:18;;;;;;;10.33;8.30;;;21.50;43.20;;;;;;6975759;28;20276;-60
2021/01/07 19:19:00;;;;;;;10.10;7.90;;;21.60;43.30;;;;;;6992697;28;20273;-63
2021/01/07 19:22:42;;;;;;;9.45;7.63;;;21.50;43.20;;;;;;6986503;28;20442;-58
2021/01/07 19:26:23;;;;;;;19.23;7.90;;;21.50;42.90;;;;;;7000627;28;20227;-55